Time;durP1;ratioP1;P1;durP2;ratioP2;P2;SDS_P1;SDS_P2;PMS_P1;PMS_P2;Temp;Humidity;BMP_temperature;BMP_pressure;BME280_temperature;BME280_humidity;BME280_pressure;Samples;Min_cycle;Max_cycle;Signal;HPM_P1;HPM_P2
2022/01/29 00:01:01;;;;;;;11.40;1.90;;;;;;;;;;5014388;28;20091;-71
2022/01/29 00:03:27;;;;;;;7.45;1.50;;;;;;;;;;5014469;28;20420;-74
2022/01/29 00:05:54;;;;;;;9.57;1.85;;;;;;;;;;5015559;28;20045;-69
2022/01/29 00:08:20;;;;;;;8.10;1.60;;;;;;;;;;5014301;28;20033;-74
2022/01/29 00:10:53;;;;;;;11.07;1.55;;;;;;;;;;5015484;28;20466;-73
2022/01/29 00:13:19;;;;;;;7.60;1.67;;;;;;;;;;5015001;28;20014;-74
2022/01/29 00:15:45;;;;;;;11.25;1.70;;;;;;;;;;5014231;28;20060;-74
2022/01/29 00:18:11;;;;;;;11.20;1.75;;;;;;;;;;5015382;28;20025;-69
2022/01/29 00:20:37;;;;;;;8.35;1.55;;;;;;;;;;5015403;28;20101;-73
2022/01/29 00:23:03;;;;;;;11.57;1.83;;;;;;;;;;5014032;28;20022;-72
2022/01/29 00:25:30;;;;;;;11.15;2.10;;;;;;;;;;5015095;28;20042;-73
2022/01/29 00:27:57;;;;;;;12.27;1.80;;;;;;;;;;5015183;28;20022;-71
2022/01/29 00:30:30;;;;;;;7.88;1.52;;;;;;;;;;5013880;28;20036;-71
2022/01/29 00:32:56;;;;;;;13.35;1.50;;;;;;;;;;5014029;28;20034;-70
2022/01/29 00:35:23;;;;;;;10.90;1.45;;;;;;;;;;5015094;28;20026;-74
2022/01/29 00:37:49;;;;;;;8.98;1.38;;;;;;;;;;5015376;28;20390;-74
2022/01/29 00:40:15;;;;;;;4.55;1.25;;;;;;;;;;5013761;28;20458;-74
2022/01/29 00:42:42;;;;;;;5.15;1.73;;;;;;;;;;5014892;28;20109;-72
2022/01/29 00:45:08;;;;;;;8.98;2.03;;;;;;;;;;5013594;28;20095;-70
2022/01/29 00:47:34;;;;;;;9.98;2.13;;;;;;;;;;5013633;28;20466;-71
2022/01/29 00:50:00;;;;;;;6.72;1.98;;;;;;;;;;5014834;28;20030;-74
2022/01/29 00:52:26;;;;;;;14.43;1.77;;;;;;;;;;5014977;28;20430;-73
2022/01/29 00:54:53;;;;;;;10.55;1.77;;;;;;;;;;5013765;28;20050;-73
2022/01/29 00:57:19;;;;;;;7.60;1.73;;;;;;;;;;5014966;28;20029;-73
2022/01/29 00:59:46;;;;;;;10.30;1.88;;;;;;;;;;5014910;28;20088;-70
2022/01/29 01:02:13;;;;;;;12.35;2.03;;;;;;;;;;5013316;28;20478;-70
2022/01/29 01:04:40;;;;;;;10.90;1.90;;;;;;;;;;5012846;28;20375;-73
2022/01/29 01:07:07;;;;;;;8.13;1.52;;;;;;;;;;5014416;28;20522;-72
2022/01/29 01:09:34;;;;;;;13.52;1.88;;;;;;;;;;5013202;28;20076;-73
2022/01/29 01:12:00;;;;;;;8.80;1.90;;;;;;;;;;5014379;28;20026;-74
2022/01/29 01:14:26;;;;;;;14.15;2.50;;;;;;;;;;5014596;28;20021;-72
2022/01/29 01:16:52;;;;;;;11.45;1.70;;;;;;;;;;5013131;28;20141;-69
2022/01/29 01:19:18;;;;;;;12.82;2.30;;;;;;;;;;5014283;28;20440;-72
2022/01/29 01:21:45;;;;;;;14.82;1.95;;;;;;;;;;5012998;28;20434;-73
2022/01/29 01:24:11;;;;;;;8.15;2.25;;;;;;;;;;5014076;28;20376;-70
2022/01/29 01:26:37;;;;;;;12.90;2.08;;;;;;;;;;5012936;28;20030;-72
2022/01/29 01:29:03;;;;;;;12.23;2.08;;;;;;;;;;5012852;28;20026;-73
2022/01/29 01:31:30;;;;;;;9.52;2.05;;;;;;;;;;5012810;28;20026;-71
2022/01/29 01:33:56;;;;;;;5.25;2.08;;;;;;;;;;5014020;28;20520;-73
2022/01/29 01:36:25;;;;;;;7.68;2.22;;;;;;;;;;5014040;28;20056;-70
2022/01/29 01:39:02;;;;;;;9.25;2.33;;;;;;;;;;5012718;28;20172;-70
2022/01/29 01:41:35;;;;;;;10.57;1.98;;;;;;;;;;5012765;28;20022;-71
2022/01/29 01:44:02;;;;;;;10.00;2.15;;;;;;;;;;5012653;28;20033;-73
2022/01/29 01:46:28;;;;;;;9.20;2.10;;;;;;;;;;5012655;28;20044;-73
2022/01/29 01:48:55;;;;;;;12.55;2.15;;;;;;;;;;5012635;28;20104;-73
2022/01/29 01:51:22;;;;;;;11.63;2.25;;;;;;;;;;5014087;28;20052;-72
2022/01/29 01:53:48;;;;;;;8.57;2.25;;;;;;;;;;5013484;28;20042;-69
2022/01/29 01:56:15;;;;;;;11.32;2.33;;;;;;;;;;5012519;28;20029;-73
2022/01/29 01:58:41;;;;;;;7.68;1.88;;;;;;;;;;5014274;28;20528;-71
2022/01/29 02:01:07;;;;;;;7.05;1.98;;;;;;;;;;5013601;28;20502;-73
2022/01/29 02:03:34;;;;;;;10.65;1.70;;;;;;;;;;5013575;28;20509;-73
2022/01/29 02:06:00;;;;;;;13.60;2.35;;;;;;;;;;5013495;28;20123;-73
2022/01/29 02:08:26;;;;;;;9.77;2.50;;;;;;;;;;5013683;28;20026;-72
2022/01/29 02:10:53;;;;;;;11.18;2.08;;;;;;;;;;5013571;28;20057;-72
2022/01/29 02:13:19;;;;;;;12.23;2.13;;;;;;;;;;5014598;28;20104;-74
2022/01/29 02:15:47;;;;;;;15.68;2.38;;;;;;;;;;5013557;28;20067;-73
2022/01/29 02:18:15;;;;;;;6.75;1.75;;;;;;;;;;5016395;28;20026;-75
2022/01/29 02:20:43;;;;;;;9.73;2.03;;;;;;;;;;5016388;28;20033;-73
2022/01/29 02:23:09;;;;;;;7.80;2.13;;;;;;;;;;5018111;28;20112;-70
2022/01/29 02:25:38;;;;;;;11.85;2.33;;;;;;;;;;5017918;28;20070;-71
2022/01/29 02:28:05;;;;;;;11.35;2.05;;;;;;;;;;5016252;28;20026;-72
2022/01/29 02:30:34;;;;;;;9.05;2.00;;;;;;;;;;5016150;28;20030;-73
2022/01/29 02:33:03;;;;;;;9.43;1.65;;;;;;;;;;5017397;28;20476;-73
2022/01/29 02:35:30;;;;;;;11.48;1.85;;;;;;;;;;5017233;28;20029;-75
2022/01/29 02:37:57;;;;;;;9.50;2.65;;;;;;;;;;5016005;28;20057;-72
2022/01/29 02:40:23;;;;;;;13.65;2.20;;;;;;;;;;5017255;28;20062;-72
2022/01/29 02:42:52;;;;;;;13.93;2.05;;;;;;;;;;5015927;28;20033;-74
2022/01/29 02:45:19;;;;;;;15.25;2.53;;;;;;;;;;5015840;28;20478;-72
2022/01/29 02:47:45;;;;;;;7.47;1.83;;;;;;;;;;5017382;28;20037;-74
2022/01/29 02:50:11;;;;;;;12.95;2.08;;;;;;;;;;5015787;28;20026;-71
2022/01/29 02:52:37;;;;;;;23.45;2.47;;;;;;;;;;5017304;28;20022;-74
2022/01/29 02:55:05;;;;;;;9.18;2.10;;;;;;;;;;5016608;28;20057;-74
2022/01/29 02:57:31;;;;;;;9.00;2.10;;;;;;;;;;5016877;28;20034;-74
2022/01/29 03:00:00;;;;;;;10.48;2.17;;;;;;;;;;5015634;28;20056;-72
2022/01/29 03:02:29;;;;;;;14.45;2.63;;;;;;;;;;5015616;28;20034;-71
2022/01/29 03:04:57;;;;;;;10.02;2.20;;;;;;;;;;5015436;28;20041;-74
2022/01/29 03:07:23;;;;;;;9.15;1.90;;;;;;;;;;5016729;28;20471;-70
2022/01/29 03:09:49;;;;;;;6.25;1.90;;;;;;;;;;5015490;28;20390;-72
2022/01/29 03:12:15;;;;;;;11.63;1.85;;;;;;;;;;5015389;28;20117;-71
2022/01/29 03:14:42;;;;;;;11.20;2.00;;;;;;;;;;5016572;28;20029;-72
2022/01/29 03:17:08;;;;;;;10.55;1.90;;;;;;;;;;5017064;28;20021;-72
2022/01/29 03:19:34;;;;;;;11.98;2.10;;;;;;;;;;5016440;28;20030;-74
2022/01/29 03:22:01;;;;;;;6.88;2.35;;;;;;;;;;5016437;28;20034;-74
2022/01/29 03:24:27;;;;;;;9.25;2.25;;;;;;;;;;5016263;28;20029;-73
2022/01/29 03:26:53;;;;;;;11.63;2.80;;;;;;;;;;5014859;28;20030;-72
2022/01/29 03:29:20;;;;;;;9.20;2.20;;;;;;;;;;5016241;28;20030;-74
2022/01/29 03:31:46;;;;;;;9.25;2.58;;;;;;;;;;5016312;28;20052;-74
2022/01/29 03:34:12;;;;;;;12.02;1.88;;;;;;;;;;5016508;28;20030;-72
2022/01/29 03:36:38;;;;;;;10.95;2.00;;;;;;;;;;5014916;28;20053;-73
2022/01/29 03:39:05;;;;;;;10.38;1.90;;;;;;;;;;5016759;28;20025;-73
2022/01/29 03:41:31;;;;;;;10.90;2.10;;;;;;;;;;5016058;28;20033;-73
2022/01/29 03:44:03;;;;;;;7.05;1.67;;;;;;;;;;5016380;28;20033;-73
2022/01/29 03:46:29;;;;;;;16.42;1.98;;;;;;;;;;5014844;28;20037;-73
2022/01/29 03:48:55;;;;;;;10.52;2.03;;;;;;;;;;5016209;28;20025;-75
2022/01/29 03:51:21;;;;;;;12.43;1.98;;;;;;;;;;5016051;28;20033;-74
2022/01/29 03:53:48;;;;;;;12.20;2.30;;;;;;;;;;5015844;28;20046;-74
2022/01/29 03:56:14;;;;;;;13.85;2.10;;;;;;;;;;5016138;28;20038;-73
2022/01/29 03:58:40;;;;;;;5.53;2.05;;;;;;;;;;5014590;28;20022;-73
2022/01/29 04:01:06;;;;;;;8.43;1.65;;;;;;;;;;5014462;28;20085;-73
2022/01/29 04:03:32;;;;;;;10.00;1.70;;;;;;;;;;5015706;28;20052;-71
2022/01/29 04:05:59;;;;;;;11.18;2.60;;;;;;;;;;5016102;28;20041;-73
2022/01/29 04:08:25;;;;;;;8.80;1.70;;;;;;;;;;5014354;28;20054;-74
2022/01/29 04:10:52;;;;;;;8.15;2.08;;;;;;;;;;5014387;28;20038;-74
2022/01/29 04:13:25;;;;;;;11.85;2.22;;;;;;;;;;5015711;28;20116;-73
2022/01/29 04:15:51;;;;;;;12.10;2.33;;;;;;;;;;5016101;28;20364;-70
2022/01/29 04:18:18;;;;;;;6.10;1.52;;;;;;;;;;5015336;28;20026;-72
2022/01/29 04:20:44;;;;;;;8.75;2.17;;;;;;;;;;5014999;28;20030;-70
2022/01/29 04:23:11;;;;;;;10.45;1.88;;;;;;;;;;5015302;28;20041;-72
2022/01/29 04:25:37;;;;;;;8.23;2.10;;;;;;;;;;5015726;28;20038;-74
2022/01/29 04:28:05;;;;;;;20.40;2.67;;;;;;;;;;5015498;28;20026;-74
2022/01/29 04:30:39;;;;;;;17.73;2.45;;;;;;;;;;5013899;28;20026;-74
2022/01/29 04:33:28;;;;;;;12.40;2.10;;;;;;;;;;5015727;28;20022;-73
2022/01/29 04:35:52;;;;;;;18.63;2.53;;;;;;;;;;5015249;28;20113;-72
2022/01/29 04:38:18;;;;;;;18.95;2.63;;;;;;;;;;5013666;28;20030;-72
2022/01/29 04:40:45;;;;;;;13.25;2.10;;;;;;;;;;5013209;28;20025;-74
2022/01/29 04:43:11;;;;;;;16.88;2.47;;;;;;;;;;5015211;28;20030;-72
2022/01/29 04:45:37;;;;;;;12.07;2.45;;;;;;;;;;5014795;28;20120;-74
2022/01/29 04:48:03;;;;;;;8.80;2.40;;;;;;;;;;5015133;28;20026;-73
2022/01/29 04:50:30;;;;;;;8.75;2.03;;;;;;;;;;5013579;28;20040;-74
2022/01/29 04:52:56;;;;;;;19.27;3.38;;;;;;;;;;5014793;28;20058;-74
2022/01/29 04:55:22;;;;;;;10.63;2.33;;;;;;;;;;5014648;28;20056;-73
2022/01/29 04:57:49;;;;;;;8.68;1.95;;;;;;;;;;5013452;28;20109;-74
2022/01/29 05:00:20;;;;;;;11.05;2.25;;;;;;;;;;5015442;28;20026;-72
2022/01/29 05:02:47;;;;;;;17.33;2.45;;;;;;;;;;5015286;28;20100;-74
2022/01/29 05:05:14;;;;;;;13.93;2.40;;;;;;;;;;5014787;28;20062;-74
2022/01/29 05:07:40;;;;;;;14.68;2.53;;;;;;;;;;5013319;28;20030;-73
2022/01/29 05:10:07;;;;;;;8.20;2.22;;;;;;;;;;5015023;28;20022;-74
2022/01/29 05:12:59;;;;;;;7.35;2.03;;;;;;;;;;5013245;28;20041;-72
2022/01/29 05:28:46;;;;;;;9.02;1.80;;;;;;;;;;5015137;28;20041;-74
2022/01/29 05:31:12;;;;;;;13.13;2.53;;;;;;;;;;5014136;28;20061;-72
2022/01/29 05:33:38;;;;;;;11.02;2.47;;;;;;;;;;5012873;28;20068;-73
2022/01/29 05:36:04;;;;;;;12.45;2.70;;;;;;;;;;5012883;28;20022;-73
2022/01/29 05:38:30;;;;;;;18.70;4.20;;;;;;;;;;5012755;28;20478;-75
2022/01/29 05:40:57;;;;;;;14.20;2.92;;;;;;;;;;5014282;28;20447;-74
2022/01/29 05:43:23;;;;;;;16.67;2.75;;;;;;;;;;5013987;28;20185;-73
2022/01/29 05:45:50;;;;;;;10.38;2.47;;;;;;;;;;5014357;28;20045;-74
2022/01/29 05:48:16;;;;;;;13.77;2.40;;;;;;;;;;5013318;28;20022;-74
2022/01/29 05:50:42;;;;;;;8.63;1.92;;;;;;;;;;5012324;28;20145;-74
2022/01/29 05:53:08;;;;;;;10.85;1.80;;;;;;;;;;5013806;28;20124;-73
2022/01/29 05:55:34;;;;;;;10.65;2.40;;;;;;;;;;5013613;28;20491;-70
2022/01/29 05:58:01;;;;;;;13.50;1.77;;;;;;;;;;5013940;28;20029;-70
2022/01/29 06:00:27;;;;;;;13.50;1.92;;;;;;;;;;5013990;28;20026;-72
2022/01/29 06:03:03;;;;;;;10.68;2.42;;;;;;;;;;5012452;28;20022;-72
2022/01/29 06:05:29;;;;;;;7.60;2.05;;;;;;;;;;5012357;28;20429;-71
2022/01/29 06:07:56;;;;;;;7.95;2.17;;;;;;;;;;5013438;28;20477;-72
2022/01/29 06:10:22;;;;;;;15.25;1.95;;;;;;;;;;5012619;28;20426;-73
2022/01/29 06:13:08;;;;;;;13.60;2.38;;;;;;;;;;5013552;28;20050;-72
2022/01/29 06:15:39;;;;;;;13.93;2.55;;;;;;;;;;5012174;28;20034;-72
2022/01/29 06:18:06;;;;;;;14.52;1.75;;;;;;;;;;5012304;28;20030;-71
2022/01/29 06:20:33;;;;;;;19.08;3.47;;;;;;;;;;5012256;28;20394;-73
2022/01/29 06:22:59;;;;;;;11.50;2.58;;;;;;;;;;5013488;28;20026;-74
2022/01/29 06:25:25;;;;;;;14.23;2.78;;;;;;;;;;5012086;28;20037;-74
2022/01/29 06:27:52;;;;;;;14.63;2.67;;;;;;;;;;5012199;28;20022;-74
2022/01/29 06:30:18;;;;;;;12.18;2.05;;;;;;;;;;5012144;28;20076;-73
2022/01/29 06:32:44;;;;;;;7.13;1.90;;;;;;;;;;5012106;28;20145;-74
2022/01/29 06:35:11;;;;;;;9.63;1.98;;;;;;;;;;5013364;28;20085;-74
2022/01/29 06:37:37;;;;;;;12.35;2.55;;;;;;;;;;5012073;28;20050;-73
2022/01/29 06:40:03;;;;;;;18.83;3.53;;;;;;;;;;5012046;28;20514;-73
2022/01/29 06:42:29;;;;;;;7.55;2.70;;;;;;;;;;5011883;28;20025;-71
2022/01/29 06:44:55;;;;;;;13.27;3.30;;;;;;;;;;4995616;28;20040;-73
2022/01/29 06:47:21;;;;;;;19.50;2.92;;;;;;;;;;5011973;28;20033;-73
2022/01/29 06:49:48;;;;;;;11.50;2.88;;;;;;;;;;5011895;28;20068;-74
2022/01/29 06:52:14;;;;;;;15.85;3.60;;;;;;;;;;5011942;28;20026;-74
2022/01/29 06:54:40;;;;;;;11.40;2.85;;;;;;;;;;5011736;28;20061;-73
2022/01/29 06:57:06;;;;;;;13.82;2.95;;;;;;;;;;5013077;28;20018;-73
2022/01/29 06:59:32;;;;;;;16.38;3.45;;;;;;;;;;5011897;28;20025;-74
2022/01/29 07:01:58;;;;;;;16.55;3.72;;;;;;;;;;5013615;28;20129;-72
2022/01/29 07:04:24;;;;;;;15.63;4.63;;;;;;;;;;5015396;28;20034;-71
2022/01/29 07:06:50;;;;;;;20.00;3.92;;;;;;;;;;5016753;28;20109;-72
2022/01/29 07:09:17;;;;;;;9.68;2.70;;;;;;;;;;5015419;28;20109;-71
2022/01/29 07:11:44;;;;;;;17.38;2.47;;;;;;;;;;5015348;28;20459;-72
2022/01/29 07:14:16;;;;;;;14.43;2.13;;;;;;;;;;5015327;28;20113;-74
2022/01/29 07:16:43;;;;;;;15.05;2.75;;;;;;;;;;5016612;28;20352;-75
2022/01/29 07:19:10;;;;;;;12.07;2.55;;;;;;;;;;5016434;28;20410;-73
2022/01/29 07:21:37;;;;;;;11.73;2.17;;;;;;;;;;5015221;28;20561;-75
2022/01/29 07:24:03;;;;;;;14.93;2.67;;;;;;;;;;5016491;28;20018;-75
2022/01/29 07:26:29;;;;;;;9.20;2.53;;;;;;;;;;5016195;28;20152;-74
2022/01/29 07:28:55;;;;;;;14.70;2.53;;;;;;;;;;5015165;28;20018;-73
2022/01/29 07:31:22;;;;;;;12.55;1.90;;;;;;;;;;5014994;28;20371;-71
2022/01/29 07:33:48;;;;;;;11.02;2.10;;;;;;;;;;5015033;28;20026;-72
2022/01/29 07:36:14;;;;;;;8.93;1.98;;;;;;;;;;5015055;28;20064;-71
2022/01/29 07:38:40;;;;;;;7.57;2.30;;;;;;;;;;5014890;28;20092;-74
2022/01/29 07:41:07;;;;;;;9.48;1.63;;;;;;;;;;5014911;28;20073;-71
2022/01/29 07:43:33;;;;;;;10.35;2.25;;;;;;;;;;5014745;28;20030;-69
2022/01/29 07:45:59;;;;;;;9.55;1.95;;;;;;;;;;5014750;28;20077;-73
2022/01/29 07:48:25;;;;;;;14.80;2.33;;;;;;;;;;5016553;28;20322;-72
2022/01/29 07:50:51;;;;;;;10.35;1.80;;;;;;;;;;5014663;28;20398;-71
2022/01/29 07:53:18;;;;;;;6.47;1.83;;;;;;;;;;5014459;28;20101;-70
2022/01/29 07:55:44;;;;;;;13.73;2.60;;;;;;;;;;5014639;28;20076;-73
2022/01/29 07:58:10;;;;;;;10.63;2.70;;;;;;;;;;5014656;28;20049;-71
2022/01/29 08:00:36;;;;;;;12.55;2.72;;;;;;;;;;5014333;28;20030;-73
2022/01/29 08:03:03;;;;;;;17.73;3.00;;;;;;;;;;5014422;28;20114;-74
2022/01/29 08:05:29;;;;;;;11.43;2.65;;;;;;;;;;5014319;28;20048;-74
2022/01/29 08:07:55;;;;;;;13.25;2.70;;;;;;;;;;5014389;28;20109;-74
2022/01/29 08:10:21;;;;;;;12.75;2.90;;;;;;;;;;5015897;28;20436;-72
2022/01/29 08:12:48;;;;;;;9.38;2.70;;;;;;;;;;5015556;28;20371;-73
2022/01/29 08:15:14;;;;;;;15.07;2.75;;;;;;;;;;5013127;28;20029;-72
2022/01/29 08:17:41;;;;;;;15.90;3.45;;;;;;;;;;5015690;28;20390;-74
2022/01/29 08:20:07;;;;;;;11.07;2.88;;;;;;;;;;5014063;28;20045;-74
2022/01/29 08:22:33;;;;;;;13.13;3.40;;;;;;;;;;5014121;28;20029;-72
2022/01/29 08:25:01;;;;;;;16.50;3.78;;;;;;;;;;5013952;28;20570;-72
2022/01/29 08:27:28;;;;;;;12.82;2.50;;;;;;;;;;5015564;28;20050;-75
2022/01/29 08:29:55;;;;;;;8.60;2.10;;;;;;;;;;5015473;28;20546;-73
2022/01/29 08:32:21;;;;;;;5.43;1.67;;;;;;;;;;5013769;28;20029;-75
2022/01/29 08:34:47;;;;;;;11.00;2.00;;;;;;;;;;5015071;28;20382;-71
2022/01/29 08:37:15;;;;;;;11.30;1.88;;;;;;;;;;5013877;28;20541;-74
2022/01/29 08:39:43;;;;;;;7.03;1.92;;;;;;;;;;5015518;28;20076;-74
2022/01/29 08:42:09;;;;;;;7.28;1.90;;;;;;;;;;5013692;28;20022;-73
2022/01/29 08:44:36;;;;;;;8.80;1.88;;;;;;;;;;5014755;28;20026;-72
2022/01/29 08:47:02;;;;;;;6.60;2.08;;;;;;;;;;5015106;28;20390;-74
2022/01/29 08:49:28;;;;;;;8.13;1.80;;;;;;;;;;5014348;28;20088;-74
2022/01/29 08:51:54;;;;;;;6.38;1.85;;;;;;;;;;5015212;28;20174;-75
2022/01/29 08:54:21;;;;;;;11.00;2.35;;;;;;;;;;5014624;28;20042;-71
2022/01/29 08:56:47;;;;;;;8.73;1.67;;;;;;;;;;5013715;28;20112;-73
2022/01/29 08:59:13;;;;;;;4.15;1.83;;;;;;;;;;5013456;28;20117;-73
2022/01/29 09:01:45;;;;;;;7.07;2.05;;;;;;;;;;5014647;28;20030;-73
2022/01/29 09:04:12;;;;;;;4.00;1.83;;;;;;;;;;5014500;28;20478;-74
2022/01/29 09:06:38;;;;;;;4.93;2.28;;;;;;;;;;5014548;28;20429;-73
2022/01/29 09:09:04;;;;;;;14.20;3.20;;;;;;;;;;5013283;28;20030;-75
2022/01/29 09:11:32;;;;;;;11.05;2.97;;;;;;;;;;5014767;28;20033;-74
2022/01/29 09:13:59;;;;;;;9.40;3.70;;;;;;;;;;5013157;28;20028;-75
2022/01/29 09:16:25;;;;;;;7.75;3.22;;;;;;;;;;5014675;28;20116;-74
2022/01/29 09:18:51;;;;;;;8.05;3.67;;;;;;;;;;5013036;28;20029;-75
2022/01/29 09:21:18;;;;;;;11.18;3.92;;;;;;;;;;5014241;28;20025;-74
2022/01/29 09:23:44;;;;;;;8.52;4.05;;;;;;;;;;5014208;28;20053;-74
2022/01/29 09:26:10;;;;;;;12.05;4.35;;;;;;;;;;5014235;28;20385;-74
2022/01/29 09:28:37;;;;;;;13.30;4.40;;;;;;;;;;5014280;28;20053;-74
2022/01/29 09:31:03;;;;;;;16.30;4.53;;;;;;;;;;5014062;28;20406;-74
2022/01/29 09:33:29;;;;;;;15.10;4.85;;;;;;;;;;5014500;28;20457;-83
2022/01/29 09:35:56;;;;;;;12.02;4.88;;;;;;;;;;5014816;28;20026;-83
2022/01/29 09:38:22;;;;;;;15.45;5.55;;;;;;;;;;5012804;28;20061;-84
2022/01/29 09:40:48;;;;;;;14.10;6.05;;;;;;;;;;5015131;28;20021;-83
2022/01/29 09:43:15;;;;;;;16.88;6.38;;;;;;;;;;5012841;28;20057;-85
2022/01/29 09:45:43;;;;;;;15.57;5.70;;;;;;;;;;5012718;28;20041;-84
2022/01/29 09:48:09;;;;;;;10.18;5.15;;;;;;;;;;5012792;28;20022;-81
2022/01/29 09:50:39;;;;;;;13.18;5.72;;;;;;;;;;5014280;28;20040;-84
2022/01/29 09:53:06;;;;;;;27.83;6.88;;;;;;;;;;5014307;28;20080;-86
2022/01/29 09:55:32;;;;;;;18.20;7.28;;;;;;;;;;5014224;28;20050;-86
2022/01/29 09:57:59;;;;;;;15.35;6.78;;;;;;;;;;5012919;28;20034;-84
2022/01/29 10:00:25;;;;;;;14.98;5.72;;;;;;;;;;5014074;28;20021;-80
2022/01/29 10:03:19;;;;;;;14.05;5.55;;;;;;;;;;5012780;28;20030;-85
2022/01/29 10:05:46;;;;;;;13.48;5.50;;;;;;;;;;5011793;28;20042;-76
2022/01/29 10:08:13;;;;;;;18.63;6.00;;;;;;;;;;5012574;28;20029;-76
2022/01/29 10:10:40;;;;;;;14.98;5.90;;;;;;;;;;5014519;28;20036;-77
2022/01/29 10:13:22;;;;;;;14.40;5.18;;;;;;;;;;5012545;28;20132;-84
2022/01/29 10:15:48;;;;;;;13.02;6.28;;;;;;;;;;5013748;28;20085;-75
2022/01/29 10:18:24;;;;;;;10.50;5.03;;;;;;;;;;5012505;28;20022;-76
2022/01/29 10:20:50;;;;;;;13.93;5.70;;;;;;;;;;5013366;28;20036;-77
2022/01/29 10:23:17;;;;;;;13.73;6.00;;;;;;;;;;5012294;28;20022;-80
2022/01/29 10:25:50;;;;;;;11.90;5.72;;;;;;;;;;5012258;28;20383;-76
2022/01/29 10:28:17;;;;;;;10.57;5.30;;;;;;;;;;5014145;28;20018;-76
2022/01/29 10:30:50;;;;;;;13.02;5.50;;;;;;;;;;5013982;28;20037;-76
2022/01/29 10:33:27;;;;;;;11.77;5.38;;;;;;;;;;5013360;28;20032;-78
2022/01/29 10:35:54;;;;;;;14.93;5.55;;;;;;;;;;5012438;28;20077;-75
2022/01/29 10:38:25;;;;;;;13.38;5.88;;;;;;;;;;5014933;28;20030;-78
2022/01/29 10:41:11;;;;;;;13.88;6.55;;;;;;;;;;5018046;28;20232;-78
2022/01/29 10:43:53;;;;;;;17.92;7.90;;;;;;;;;;5016456;28;20493;-78
2022/01/29 10:46:30;;;;;;;18.65;6.90;;;;;;;;;;5016087;28;20133;-76
2022/01/29 10:48:56;;;;;;;18.73;6.47;;;;;;;;;;5016093;28;20109;-78
2022/01/29 10:51:22;;;;;;;13.00;5.40;;;;;;;;;;5015992;28;20018;-78
2022/01/29 10:53:49;;;;;;;13.68;5.45;;;;;;;;;;5015431;28;20403;-76
2022/01/29 10:56:15;;;;;;;12.27;6.45;;;;;;;;;;5017535;28;20447;-76
2022/01/29 10:58:42;;;;;;;45.38;14.70;;;;;;;;;;5015900;28;20082;-77
2022/01/29 11:01:15;;;;;;;13.85;5.72;;;;;;;;;;5017780;28;20026;-77
2022/01/29 11:03:42;;;;;;;12.10;5.78;;;;;;;;;;5017894;28;20116;-81
2022/01/29 11:06:09;;;;;;;15.05;6.28;;;;;;;;;;5017687;28;20042;-83
2022/01/29 11:08:36;;;;;;;10.65;5.13;;;;;;;;;;5015800;28;20378;-77
2022/01/29 11:11:03;;;;;;;11.85;5.15;;;;;;;;;;5016937;28;20029;-82
2022/01/29 11:13:30;;;;;;;14.13;4.72;;;;;;;;;;5017082;28;20379;-77
2022/01/29 11:15:58;;;;;;;9.27;3.90;;;;;;;;;;5015841;28;20025;-77
2022/01/29 11:18:27;;;;;;;7.28;3.95;;;;;;;;;;5017216;28;20033;-77
2022/01/29 11:20:54;;;;;;;8.98;3.65;;;;;;;;;;5019450;28;20026;-77
2022/01/29 11:23:21;;;;;;;12.85;3.95;;;;;;;;;;5015322;28;20032;-78
2022/01/29 11:25:48;;;;;;;8.20;3.38;;;;;;;;;;5017082;28;20042;-77
2022/01/29 11:28:15;;;;;;;6.43;3.00;;;;;;;;;;5016695;28;20055;-77
2022/01/29 11:30:43;;;;;;;7.32;2.83;;;;;;;;;;5016515;28;20033;-80
2022/01/29 11:33:09;;;;;;;6.50;3.00;;;;;;;;;;5015339;28;20486;-86
2022/01/29 11:35:52;;;;;;;8.63;2.90;;;;;;;;;;5015139;28;20034;-78
2022/01/29 11:38:32;;;;;;;6.63;2.85;;;;;;;;;;5015373;28;20046;-79
2022/01/29 11:40:59;;;;;;;10.35;3.25;;;;;;;;;;5015156;28;20068;-85
2022/01/29 11:43:27;;;;;;;8.80;3.67;;;;;;;;;;5014972;28;20022;-77
2022/01/29 11:46:03;;;;;;;9.90;3.72;;;;;;;;;;5014748;28;20100;-78
2022/01/29 11:48:41;;;;;;;9.10;3.40;;;;;;;;;;5016480;28;20550;-82
2022/01/29 11:51:12;;;;;;;10.02;3.47;;;;;;;;;;5014893;28;20077;-83
2022/01/29 11:53:44;;;;;;;11.85;2.75;;;;;;;;;;5014560;28;20045;-77
2022/01/29 11:56:30;;;;;;;6.93;3.00;;;;;;;;;;5014825;28;20026;-77
2022/01/29 11:59:14;;;;;;;8.38;3.00;;;;;;;;;;5014530;28;20076;-77
2022/01/29 12:01:41;;;;;;;11.93;2.70;;;;;;;;;;5015862;28;20105;-78
2022/01/29 12:04:07;;;;;;;7.30;2.47;;;;;;;;;;5014506;28;20121;-78
2022/01/29 12:06:36;;;;;;;8.20;2.70;;;;;;;;;;5014465;28;20044;-77
2022/01/29 12:09:05;;;;;;;6.53;2.70;;;;;;;;;;5014458;28;20057;-78
2022/01/29 12:11:32;;;;;;;7.68;2.70;;;;;;;;;;5014451;28;20037;-76
2022/01/29 12:14:14;;;;;;;6.63;2.47;;;;;;;;;;5014367;28;20021;-77
2022/01/29 12:16:48;;;;;;;7.10;2.33;;;;;;;;;;5014381;28;20513;-78
2022/01/29 12:19:33;;;;;;;10.35;2.50;;;;;;;;;;5016001;28;20029;-85
2022/01/29 12:22:08;;;;;;;6.50;2.42;;;;;;;;;;5014240;28;20022;-76
2022/01/29 12:24:34;;;;;;;8.10;2.20;;;;;;;;;;5014113;28;20026;-76
2022/01/29 12:27:01;;;;;;;4.50;2.10;;;;;;;;;;5015818;28;20541;-76
2022/01/29 12:29:27;;;;;;;6.18;2.30;;;;;;;;;;5015752;28;20108;-76
2022/01/29 12:31:56;;;;;;;8.57;2.83;;;;;;;;;;5015176;28;20034;-75
2022/01/29 12:34:22;;;;;;;30.20;10.40;;;;;;;;;;5013843;28;20030;-76
2022/01/29 12:36:48;;;;;;;20.98;6.90;;;;;;;;;;5015296;28;20033;-81
2022/01/29 12:39:21;;;;;;;6.57;2.47;;;;;;;;;;5013893;28;20022;-76
2022/01/29 12:42:42;;;;;;;15.88;6.20;;;;;;;;;;5015658;28;20057;-76
2022/01/29 12:44:53;;;;;;;7.55;3.47;;;;;;;;;;5010936;28;20054;-76
2022/01/29 12:47:24;;;;;;;7.75;3.00;;;;;;;;;;5013638;28;20049;-75
2022/01/29 12:49:50;;;;;;;11.50;3.38;;;;;;;;;;5014895;28;20437;-77
2022/01/29 12:52:17;;;;;;;7.97;3.45;;;;;;;;;;5014866;28;20021;-77
2022/01/29 12:54:58;;;;;;;4.88;2.58;;;;;;;;;;5014741;28;20396;-77
2022/01/29 12:57:25;;;;;;;7.10;2.92;;;;;;;;;;5013567;28;20049;-77
2022/01/29 12:59:51;;;;;;;5.25;2.92;;;;;;;;;;5014278;28;20393;-82
2022/01/29 13:02:17;;;;;;;7.65;2.67;;;;;;;;;;5013487;28;20022;-79
2022/01/29 13:04:47;;;;;;;8.55;2.50;;;;;;;;;;5014554;28;20036;-81
2022/01/29 13:07:14;;;;;;;6.85;2.95;;;;;;;;;;5013386;28;20038;-77
2022/01/29 13:09:40;;;;;;;6.47;2.50;;;;;;;;;;5015122;28;20022;-79
2022/01/29 13:12:12;;;;;;;6.25;2.45;;;;;;;;;;5015106;28;20026;-77
2022/01/29 13:14:38;;;;;;;5.00;2.72;;;;;;;;;;5013778;28;20069;-78
2022/01/29 13:17:06;;;;;;;7.03;2.92;;;;;;;;;;5013170;28;20022;-82
2022/01/29 13:19:32;;;;;;;4.75;2.42;;;;;;;;;;5013079;28;20501;-75
2022/01/29 13:22:06;;;;;;;6.03;2.35;;;;;;;;;;5013355;28;20516;-78
2022/01/29 13:24:34;;;;;;;4.13;2.22;;;;;;;;;;5013421;28;20030;-82
2022/01/29 13:27:13;;;;;;;6.05;2.45;;;;;;;;;;5013096;28;20045;-80
2022/01/29 13:29:43;;;;;;;4.18;2.30;;;;;;;;;;5012760;28;20096;-80
2022/01/29 13:32:10;;;;;;;4.22;2.20;;;;;;;;;;5011351;28;20029;-78
2022/01/29 13:34:41;;;;;;;3.63;1.90;;;;;;;;;;4997704;28;20112;-80
2022/01/29 13:37:26;;;;;;;5.85;2.50;;;;;;;;;;5005040;28;20060;-76
2022/01/29 13:39:52;;;;;;;5.18;2.30;;;;;;;;;;5005732;28;20036;-80
2022/01/29 13:42:20;;;;;;;4.75;2.05;;;;;;;;;;5007832;28;20026;-78
2022/01/29 13:45:03;;;;;;;5.78;2.50;;;;;;;;;;4998161;28;20075;-76
2022/01/29 13:47:29;;;;;;;6.40;2.70;;;;;;;;;;5000821;28;20037;-80
2022/01/29 13:49:55;;;;;;;9.25;2.38;;;;;;;;;;5004984;28;20253;-79
2022/01/29 13:52:24;;;;;;;6.53;2.17;;;;;;;;;;4994285;28;20030;-78
2022/01/29 13:54:50;;;;;;;4.28;1.98;;;;;;;;;;4994035;28;20486;-79
2022/01/29 13:57:16;;;;;;;5.05;2.28;;;;;;;;;;4992932;28;20018;-77
2022/01/29 13:59:46;;;;;;;7.63;2.42;;;;;;;;;;4992904;28;20034;-79
2022/01/29 14:02:12;;;;;;;5.85;2.92;;;;;;;;;;4994252;28;20022;-77
2022/01/29 14:04:40;;;;;;;3.60;2.60;;;;;;;;;;4992816;28;20036;-80
2022/01/29 14:07:17;;;;;;;8.00;3.08;;;;;;;;;;4994559;28;20498;-82
2022/01/29 14:09:46;;;;;;;10.02;4.35;;;;;;;;;;4992512;28;20034;-79
2022/01/29 14:12:13;;;;;;;8.13;3.97;;;;;;;;;;4991627;28;20026;-74
2022/01/29 14:14:46;;;;;;;6.75;3.38;;;;;;;;;;4994049;28;20049;-77
2022/01/29 14:17:17;;;;;;;6.32;3.33;;;;;;;;;;4994010;28;20027;-82
2022/01/29 14:19:45;;;;;;;6.43;2.78;;;;;;;;;;4992667;28;20164;-76
2022/01/29 14:22:12;;;;;;;8.68;2.80;;;;;;;;;;4993933;28;20038;-79
2022/01/29 14:24:41;;;;;;;6.55;2.55;;;;;;;;;;4993912;28;20033;-76
2022/01/29 14:27:08;;;;;;;4.13;2.05;;;;;;;;;;4992652;28;20070;-77
2022/01/29 14:29:35;;;;;;;4.63;2.40;;;;;;;;;;4992572;28;20053;-76
2022/01/29 14:32:02;;;;;;;3.83;2.10;;;;;;;;;;4992603;28;20027;-76
2022/01/29 14:34:28;;;;;;;4.93;2.55;;;;;;;;;;4992613;28;20026;-75
2022/01/29 14:36:56;;;;;;;4.28;2.47;;;;;;;;;;4993824;28;20030;-75
2022/01/29 14:39:24;;;;;;;5.85;2.40;;;;;;;;;;4994315;28;20029;-76
2022/01/29 14:41:51;;;;;;;5.38;2.40;;;;;;;;;;4992562;28;20484;-76
2022/01/29 14:44:17;;;;;;;4.57;2.40;;;;;;;;;;4993806;28;20073;-78
2022/01/29 14:46:44;;;;;;;4.55;2.42;;;;;;;;;;4994193;28;20038;-78
2022/01/29 14:49:10;;;;;;;6.57;2.60;;;;;;;;;;4992514;28;20493;-75
2022/01/29 14:51:40;;;;;;;4.18;2.65;;;;;;;;;;4993726;28;20030;-78
2022/01/29 14:54:07;;;;;;;3.28;2.17;;;;;;;;;;4991905;28;20050;-77